Dickinson, ND

2:25 AM MDT on September 01, 2015 (GMT -0600)
Southview | | Change Station
CLOSE
Current Station
Personal Weather Station
Location: Dickinson, ND
Elevation: 2434 ft
Nearby Weather Stations

Elev 2434 ft 46.86 °N, 102.78 °W | Updated 9 minutes ago

Clear
Clear
56.5 °F
Feels Like 56.5 °F
N
1.1
Wind Variable Wind from West

Today
High -- | Low -- °F
--% Chance of Precip.
Yesterday
High -- | Low -- °F
Precip. -- in
6:10 AM 7:30 PM
Waning Gibbous, 90% visible
Pressure 29.83 in
Visibility 10.0 miles
Clouds Clear
Dew Point 46 °F
Humidity 68%
Rainfall 0.00 in
Snow Depth Not available.
UV 0 out of 12
Pollen 10.60 out of 12
Air Quality Not available.
Flu Activity Not available.
METAR KDIK 010756Z AUTO 19008KT 10SM CLR 13/08 A2986 RMK AO2 SLP101 T01280078
Pressure 29.83 in
Visibility 10.0 miles
Clouds Clear
Dew Point 46 °F
Humidity 68%
Rainfall 0.00 in
Snow Depth Not available.
UV 0 out of 12
Pollen 10.60 out of 12
Air Quality Not available.
Flu Activity Not available.
METAR KDIK 010756Z AUTO 19008KT 10SM CLR 13/08 A2986 RMK AO2 SLP101 T01280078

10-Day Weather Forecast

×

Almanac

Astronomy

Sep. 01, 2015 Rise Set
Actual Time
Civil Twilight
Nautical Twilight
Astronomical Twilight
Moon
Length of Visible Light
Length of Day
Tomorrow will be .
, % of the Moon is Illuminated

Today's Extremes

State Highs State Lows

Community

WunderPhotos

Upload Photos

1,851,490 photos uploaded!

WunderBlogs® & News

Nearby

Air Quality

  Air Quality AQ Index Pollutant
Not available.

Snow Depth

Station Depth Elevation

Earthquake Activity

City Distance Mag. Time & Date
Minimum magnitude displayed is 2.5.

Coastal Water Temperatures

Place Temperature

Stations

Nearby Weather Stations

Station Location Temp. Windchill Dew Point Humidity Wind Precip. Elev Updated Type